Time;durP1;ratioP1;P1;durP2;ratioP2;P2;SDS_P1;SDS_P2;PMS_P1;PMS_P2;Temp;Humidity;BMP_temperature;BMP_pressure;BME280_temperature;BME280_humidity;BME280_pressure;Samples;Min_cycle;Max_cycle;Signal;HPM_P1;HPM_P2
2021/03/23 00:00:12;;;;;;;125.20;70.97;;;17.70;50.30;;;;;;5015866;28;20030;-66
2021/03/23 00:02:37;;;;;;;127.68;72.38;;;17.60;50.30;;;;;;5015962;28;20041;-67
2021/03/23 00:05:07;;;;;;;125.95;69.05;;;17.60;50.30;;;;;;5016101;28;20393;-66
2021/03/23 00:07:33;;;;;;;120.72;72.28;;;17.60;50.30;;;;;;5016063;28;20029;-66
2021/03/23 00:09:58;;;;;;;115.03;67.25;;;17.60;50.20;;;;;;5016065;28;20053;-65
2021/03/23 00:12:24;;;;;;;117.35;68.70;;;17.60;50.30;;;;;;5016111;28;20022;-65
2021/03/23 00:14:50;;;;;;;120.88;68.80;;;17.60;50.30;;;;;;5015992;28;20053;-66
2021/03/23 00:17:15;;;;;;;112.63;65.57;;;17.50;50.20;;;;;;5015803;28;20030;-66
2021/03/23 00:19:41;;;;;;;113.30;63.75;;;17.50;50.20;;;;;;5015827;28;20473;-66
2021/03/23 00:22:07;;;;;;;118.43;68.72;;;17.50;51.00;;;;;;5015807;28;20370;-67
2021/03/23 00:24:32;;;;;;;109.10;62.13;;;17.50;50.60;;;;;;5015347;28;20053;-65
2021/03/23 00:26:58;;;;;;;109.38;64.32;;;17.50;50.20;;;;;;5015601;28;20052;-65
2021/03/23 00:29:24;;;;;;;113.25;63.80;;;17.60;50.30;;;;;;5014302;28;20548;-65
2021/03/23 00:31:49;;;;;;;115.00;63.42;;;17.60;50.10;;;;;;5015487;28;20536;-66
2021/03/23 00:34:15;;;;;;;109.32;60.75;;;17.60;50.00;;;;;;5048498;28;20033;-66
2021/03/23 00:36:42;;;;;;;105.90;58.65;;;17.60;50.50;;;;;;5054465;28;20082;-67
2021/03/23 00:39:10;;;;;;;103.13;58.92;;;17.60;50.40;;;;;;5054352;28;20037;-67
2021/03/23 00:41:39;;;;;;;103.80;58.95;;;17.60;50.40;;;;;;5053083;28;20388;-67
2021/03/23 00:44:07;;;;;;;102.28;58.70;;;17.50;50.20;;;;;;5054524;28;20025;-67
2021/03/23 00:46:33;;;;;;;104.57;57.42;;;17.40;50.20;;;;;;5054350;28;20029;-66
2021/03/23 00:48:58;;;;;;;94.47;58.10;;;17.40;50.30;;;;;;5054142;28;20025;-67
2021/03/23 00:51:24;;;;;;;103.53;56.95;;;17.40;50.60;;;;;;5052760;28;20025;-66
2021/03/23 00:53:50;;;;;;;97.22;54.65;;;17.40;50.60;;;;;;5053369;28;20048;-67
2021/03/23 00:56:15;;;;;;;95.10;55.22;;;17.30;50.40;;;;;;5053866;28;20112;-66
2021/03/23 00:58:41;;;;;;;98.50;55.28;;;17.30;50.30;;;;;;5054211;28;20025;-66
2021/03/23 01:01:06;;;;;;;96.75;52.75;;;17.30;50.30;;;;;;5053994;28;20029;-66
2021/03/23 01:03:32;;;;;;;91.80;55.53;;;17.30;50.40;;;;;;5053983;28;20056;-67
2021/03/23 01:05:58;;;;;;;91.97;54.03;;;17.30;50.20;;;;;;5053806;28;20040;-66
2021/03/23 01:08:24;;;;;;;91.18;52.78;;;17.30;50.20;;;;;;5053820;28;20025;-66
2021/03/23 01:10:49;;;;;;;87.38;52.00;;;17.30;50.10;;;;;;5053690;28;20021;-67
2021/03/23 01:13:15;;;;;;;90.03;50.30;;;17.30;50.20;;;;;;5053968;28;20119;-66
2021/03/23 01:15:40;;;;;;;85.50;50.17;;;17.20;50.20;;;;;;5053582;28;20462;-66
2021/03/23 01:18:06;;;;;;;84.70;48.25;;;17.20;50.20;;;;;;5053651;28;20032;-66
2021/03/23 01:20:33;;;;;;;81.50;48.92;;;17.20;50.30;;;;;;5053750;28;20496;-66
2021/03/23 01:22:59;;;;;;;86.45;49.63;;;17.20;50.30;;;;;;5053902;28;20032;-66
2021/03/23 01:25:25;;;;;;;83.18;47.35;;;17.10;50.60;;;;;;5053224;28;20028;-66
2021/03/23 01:27:51;;;;;;;80.50;45.63;;;17.10;50.10;;;;;;5053451;28;20107;-66
2021/03/23 01:30:20;;;;;;;79.13;45.03;;;17.20;50.00;;;;;;5052320;28;20143;-66
2021/03/23 01:32:47;;;;;;;72.93;44.67;;;17.20;49.90;;;;;;5053318;28;20497;-66
2021/03/23 01:35:12;;;;;;;74.00;42.30;;;17.20;49.80;;;;;;5053407;28;20033;-66
2021/03/23 01:37:38;;;;;;;66.63;42.25;;;17.30;49.90;;;;;;5053262;28;20456;-66
2021/03/23 01:40:05;;;;;;;69.30;42.35;;;17.30;49.80;;;;;;5051893;28;20029;-66
2021/03/23 01:42:43;;;;;;;72.32;41.58;;;17.30;49.80;;;;;;5053408;28;20029;-66
2021/03/23 01:45:39;;;;;;;76.63;43.42;;;17.20;49.70;;;;;;5053183;28;20021;-66
2021/03/23 01:48:16;;;;;;;70.88;41.05;;;17.20;50.00;;;;;;5048313;28;20049;-66
2021/03/23 01:50:46;;;;;;;70.95;39.85;;;17.10;50.00;;;;;;5053102;28;20079;-66
2021/03/23 01:53:32;;;;;;;66.43;38.55;;;17.10;50.00;;;;;;5051705;28;20041;-66
2021/03/23 01:55:59;;;;;;;67.65;39.40;;;17.00;49.90;;;;;;5052923;28;20057;-66
2021/03/23 01:58:25;;;;;;;63.80;39.00;;;17.00;50.00;;;;;;5052882;28;20032;-66
2021/03/23 02:00:52;;;;;;;66.00;37.53;;;17.00;50.00;;;;;;5053194;28;20052;-66
2021/03/23 02:03:18;;;;;;;58.63;35.95;;;16.90;50.10;;;;;;5052964;28;20163;-66
2021/03/23 02:05:53;;;;;;;63.97;38.22;;;17.00;50.00;;;;;;5051271;28;20503;-66
2021/03/23 02:08:18;;;;;;;66.45;37.90;;;17.00;50.00;;;;;;5052924;28;20029;-66
2021/03/23 02:10:44;;;;;;;62.03;36.70;;;17.00;50.30;;;;;;5052798;28;20104;-66
2021/03/23 02:13:10;;;;;;;65.35;36.97;;;17.00;50.10;;;;;;5052743;28;20032;-66
2021/03/23 02:15:36;;;;;;;65.03;36.20;;;16.90;50.00;;;;;;5052900;28;20032;-66
2021/03/23 02:18:07;;;;;;;57.20;33.33;;;16.90;50.20;;;;;;5052900;28;20021;-66
2021/03/23 02:20:33;;;;;;;68.07;37.30;;;16.90;50.10;;;;;;5052701;28;20071;-66
2021/03/23 02:23:09;;;;;;;58.42;35.05;;;16.90;50.10;;;;;;5052670;28;20052;-66
2021/03/23 02:25:35;;;;;;;54.25;31.00;;;16.90;50.00;;;;;;5052425;28;20029;-66
2021/03/23 02:28:02;;;;;;;61.08;33.85;;;16.90;50.00;;;;;;5052763;28;20373;-66
2021/03/23 02:30:40;;;;;;;57.03;33.50;;;16.90;50.20;;;;;;5052481;28;20179;-66
2021/03/23 02:33:07;;;;;;;51.67;31.48;;;16.90;50.00;;;;;;5052533;28;20064;-66
2021/03/23 02:35:33;;;;;;;56.95;33.47;;;16.90;49.90;;;;;;5052636;28;20036;-66
2021/03/23 02:38:00;;;;;;;53.65;32.00;;;16.90;51.00;;;;;;5052382;28;20029;-66
2021/03/23 02:40:27;;;;;;;50.38;29.55;;;16.90;50.20;;;;;;5052600;28;20025;-68
2021/03/23 02:42:53;;;;;;;56.47;31.35;;;16.90;50.50;;;;;;5052744;28;20474;-69
2021/03/23 02:45:19;;;;;;;51.53;29.50;;;17.00;50.20;;;;;;5052724;28;20104;-67
2021/03/23 02:47:45;;;;;;;47.55;28.98;;;17.00;50.00;;;;;;5052563;28;20087;-68
2021/03/23 02:50:11;;;;;;;50.78;29.80;;;16.90;49.80;;;;;;5052252;28;20029;-68
2021/03/23 02:52:37;;;;;;;47.90;28.77;;;16.90;49.80;;;;;;5052208;28;20033;-68
2021/03/23 02:55:04;;;;;;;54.58;30.77;;;16.80;49.90;;;;;;5052008;28;20048;-68
2021/03/23 02:57:30;;;;;;;50.08;27.35;;;16.80;50.40;;;;;;5052343;28;20384;-68
2021/03/23 02:59:55;;;;;;;47.95;28.90;;;16.80;50.10;;;;;;5052387;28;20025;-68
2021/03/23 03:02:21;;;;;;;46.97;28.42;;;16.80;50.00;;;;;;5052331;28;20029;-68
2021/03/23 03:04:47;;;;;;;49.42;28.27;;;16.80;49.80;;;;;;5052300;28;20036;-68
2021/03/23 03:07:12;;;;;;;45.63;26.60;;;16.80;49.90;;;;;;5052206;28;20033;-68
2021/03/23 03:09:38;;;;;;;37.00;23.88;;;16.80;49.80;;;;;;5052554;28;20075;-68
2021/03/23 03:12:05;;;;;;;43.03;26.40;;;16.90;49.70;;;;;;5052275;28;20028;-69
2021/03/23 03:14:31;;;;;;;38.03;23.58;;;16.90;49.40;;;;;;5052149;28;20108;-68
2021/03/23 03:16:56;;;;;;;40.65;24.45;;;17.00;49.20;;;;;;5052307;28;20124;-68
2021/03/23 03:19:22;;;;;;;39.58;24.08;;;17.20;48.80;;;;;;5055972;28;20061;-68
2021/03/23 03:21:48;;;;;;;39.92;21.38;;;17.30;48.40;;;;;;5055851;28;20036;-69
2021/03/23 03:24:13;;;;;;;36.65;21.38;;;17.50;48.30;;;;;;5056032;28;20465;-68
2021/03/23 03:26:39;;;;;;;39.40;22.08;;;17.60;47.90;;;;;;5055889;28;20056;-69
2021/03/23 03:29:05;;;;;;;39.40;21.50;;;17.80;47.50;;;;;;5055864;28;20029;-68
2021/03/23 03:31:31;;;;;;;37.17;20.85;;;17.90;47.20;;;;;;5055792;28;20492;-68
2021/03/23 03:33:58;;;;;;;30.88;20.10;;;18.00;47.00;;;;;;5054408;28;20481;-68
2021/03/23 03:36:26;;;;;;;35.58;20.33;;;18.00;47.00;;;;;;5055848;28;20052;-68
2021/03/23 03:38:53;;;;;;;33.78;18.92;;;18.20;46.70;;;;;;5055744;28;20029;-69
2021/03/23 03:41:19;;;;;;;32.08;19.70;;;18.30;46.30;;;;;;5055598;28;20461;-68
2021/03/23 03:43:45;;;;;;;32.22;18.02;;;18.40;46.00;;;;;;5055487;28;20021;-68
2021/03/23 03:46:11;;;;;;;34.05;17.70;;;18.50;45.90;;;;;;5055477;28;20546;-66
2021/03/23 03:48:37;;;;;;;31.65;18.23;;;18.40;46.10;;;;;;5055358;28;20227;-66
2021/03/23 03:51:03;;;;;;;30.45;19.55;;;18.40;46.20;;;;;;5055366;28;20025;-66
2021/03/23 03:53:28;;;;;;;29.95;17.73;;;18.30;46.20;;;;;;5055257;28;20138;-66
2021/03/23 03:55:54;;;;;;;28.13;17.80;;;18.20;46.30;;;;;;5055281;28;20128;-66
2021/03/23 03:58:21;;;;;;;27.65;17.58;;;18.20;46.40;;;;;;5055297;28;20537;-66
2021/03/23 04:00:46;;;;;;;27.60;16.48;;;18.10;46.50;;;;;;5055145;28;20027;-66
2021/03/23 04:03:15;;;;;;;25.10;15.57;;;18.10;46.60;;;;;;5055154;28;20021;-66
2021/03/23 04:05:42;;;;;;;26.40;15.88;;;18.10;46.70;;;;;;5055018;28;20037;-66
2021/03/23 04:08:10;;;;;;;28.77;15.85;;;18.10;46.70;;;;;;5055185;28;20090;-67
2021/03/23 04:10:36;;;;;;;28.10;16.33;;;18.00;46.80;;;;;;5055170;28;20029;-66
2021/03/23 04:13:02;;;;;;;23.42;15.15;;;18.00;46.90;;;;;;5054973;28;20132;-66
2021/03/23 04:15:31;;;;;;;27.20;16.33;;;18.00;46.90;;;;;;5054959;28;20033;-66
2021/03/23 04:17:57;;;;;;;22.35;15.35;;;17.90;46.90;;;;;;5054861;28;20515;-66
2021/03/23 04:20:23;;;;;;;20.92;12.65;;;17.90;47.00;;;;;;5055327;28;20052;-66
2021/03/23 04:22:50;;;;;;;24.40;14.32;;;17.90;47.00;;;;;;5054977;28;20029;-66
2021/03/23 04:25:18;;;;;;;27.35;14.60;;;17.90;47.10;;;;;;5054637;28;20074;-66
2021/03/23 04:27:44;;;;;;;23.20;14.18;;;17.90;47.10;;;;;;5054788;28;20100;-66
2021/03/23 04:30:10;;;;;;;24.08;14.18;;;17.80;47.10;;;;;;5054506;28;20108;-66
2021/03/23 04:32:37;;;;;;;25.98;15.80;;;17.80;47.20;;;;;;5054513;28;20039;-66
2021/03/23 04:35:06;;;;;;;24.27;13.65;;;17.80;47.90;;;;;;5053492;28;20461;-66
2021/03/23 04:37:33;;;;;;;26.75;13.40;;;17.70;47.30;;;;;;5054716;28;20025;-66
2021/03/23 04:40:03;;;;;;;24.52;13.55;;;17.80;47.20;;;;;;5054578;28;20025;-66
2021/03/23 04:42:29;;;;;;;19.60;12.15;;;17.80;47.20;;;;;;5054588;28;20051;-66
2021/03/23 04:44:55;;;;;;;24.27;13.85;;;17.90;47.20;;;;;;5053113;28;20469;-66
2021/03/23 04:47:20;;;;;;;23.15;12.13;;;17.90;47.00;;;;;;5054466;28;20473;-66
2021/03/23 04:49:46;;;;;;;20.80;12.27;;;17.90;46.80;;;;;;5054215;28;20524;-66
2021/03/23 04:52:12;;;;;;;20.60;12.93;;;17.90;46.80;;;;;;5054030;28;20032;-66
2021/03/23 04:54:37;;;;;;;21.45;12.45;;;17.90;47.00;;;;;;5052774;28;20079;-66
2021/03/23 04:57:03;;;;;;;20.65;12.30;;;17.80;47.00;;;;;;5054108;28;20511;-66
2021/03/23 04:59:29;;;;;;;19.90;11.35;;;17.80;47.00;;;;;;5053874;28;20357;-66
2021/03/23 05:01:55;;;;;;;21.25;12.55;;;17.70;47.20;;;;;;5054070;28;20036;-66
2021/03/23 05:04:21;;;;;;;22.58;12.10;;;17.60;47.10;;;;;;5054191;28;20091;-66
2021/03/23 05:06:46;;;;;;;21.42;13.05;;;17.60;47.10;;;;;;5054038;28;20107;-66
2021/03/23 05:09:13;;;;;;;20.10;12.07;;;17.60;47.30;;;;;;5053801;28;20428;-66
2021/03/23 05:11:39;;;;;;;17.92;11.07;;;17.50;47.30;;;;;;5053828;28;20091;-67
2021/03/23 05:14:07;;;;;;;20.13;12.73;;;17.50;47.20;;;;;;5054255;28;20029;-67
2021/03/23 05:16:33;;;;;;;19.33;11.52;;;17.50;47.20;;;;;;5053882;28;20029;-67
2021/03/23 05:19:01;;;;;;;20.08;10.90;;;17.50;47.30;;;;;;5053812;28;20393;-67
2021/03/23 05:21:27;;;;;;;19.45;11.45;;;17.40;47.30;;;;;;5053603;28;20032;-67
2021/03/23 05:24:00;;;;;;;18.95;11.57;;;17.40;47.30;;;;;;5053495;28;20033;-67
2021/03/23 05:26:26;;;;;;;17.30;10.60;;;17.40;47.30;;;;;;5053473;28;20494;-67
2021/03/23 05:28:53;;;;;;;17.75;11.15;;;17.40;47.40;;;;;;5053363;28;20082;-67
2021/03/23 05:31:19;;;;;;;18.55;10.68;;;17.40;47.40;;;;;;5053876;28;20491;-66
2021/03/23 05:33:45;;;;;;;16.88;9.85;;;17.40;47.30;;;;;;5053375;28;20485;-67
2021/03/23 05:36:11;;;;;;;15.80;9.63;;;17.30;47.30;;;;;;5053417;28;20029;-67
2021/03/23 05:38:38;;;;;;;17.88;10.77;;;17.30;47.20;;;;;;5053287;28;20107;-67
2021/03/23 05:41:06;;;;;;;18.40;11.32;;;17.30;47.30;;;;;;5052580;28;20036;-67
2021/03/23 05:44:06;;;;;;;18.35;9.82;;;17.30;47.50;;;;;;5053139;28;20025;-67
2021/03/23 05:46:37;;;;;;;14.98;9.57;;;17.30;47.60;;;;;;5053037;28;20065;-67
2021/03/23 05:49:06;;;;;;;19.00;10.02;;;17.30;47.50;;;;;;5053191;28;20049;-66
2021/03/23 05:51:38;;;;;;;15.30;9.07;;;17.30;47.50;;;;;;5052962;28;20033;-66
2021/03/23 05:54:25;;;;;;;15.40;9.10;;;17.30;47.30;;;;;;5052992;28;20099;-67
2021/03/23 05:56:54;;;;;;;16.70;9.52;;;17.40;47.40;;;;;;5052980;28;20456;-67
2021/03/23 05:59:33;;;;;;;16.27;9.27;;;17.40;47.40;;;;;;5051750;28;20384;-67
2021/03/23 06:02:04;;;;;;;15.63;9.02;;;17.40;47.00;;;;;;5052945;28;20104;-67
2021/03/23 06:04:48;;;;;;;13.55;9.20;;;17.40;46.90;;;;;;5053172;28;20461;-67
2021/03/23 06:07:15;;;;;;;16.55;9.43;;;17.30;46.90;;;;;;5052836;28;20029;-67
2021/03/23 06:09:42;;;;;;;13.77;8.38;;;17.30;47.10;;;;;;5052776;28;20083;-67
2021/03/23 06:12:30;;;;;;;16.58;9.52;;;17.30;47.70;;;;;;5052792;28;20040;-66
2021/03/23 06:15:24;;;;;;;14.82;8.57;;;17.30;47.10;;;;;;5051623;28;20067;-67
2021/03/23 06:18:02;;;;;;;13.90;8.85;;;17.30;47.20;;;;;;5047019;28;20063;-67
2021/03/23 06:20:45;;;;;;;16.08;8.48;;;17.20;47.20;;;;;;5052661;28;20032;-66
2021/03/23 06:23:16;;;;;;;13.95;7.97;;;17.20;47.30;;;;;;5052685;28;20086;-67
2021/03/23 06:26:03;;;;;;;12.18;7.85;;;17.10;47.30;;;;;;5052655;28;20492;-67
2021/03/23 06:28:55;;;;;;;16.02;8.55;;;17.10;47.50;;;;;;5052689;28;20392;-66
2021/03/23 06:31:39;;;;;;;17.05;8.63;;;17.10;47.50;;;;;;5052753;28;20029;-67
2021/03/23 06:34:16;;;;;;;11.63;6.97;;;17.20;47.40;;;;;;5052520;28;20054;-66
2021/03/23 06:36:41;;;;;;;16.40;8.60;;;17.30;47.10;;;;;;5044622;28;20037;-67
2021/03/23 06:39:07;;;;;;;11.82;7.65;;;17.40;47.00;;;;;;5033116;28;20485;-65
2021/03/23 06:41:35;;;;;;;16.05;8.13;;;17.50;46.70;;;;;;5033434;28;20022;-64
2021/03/23 06:44:13;;;;;;;13.55;7.47;;;17.70;47.10;;;;;;5033258;28;20030;-67
2021/03/23 06:46:47;;;;;;;12.50;8.65;;;17.90;47.00;;;;;;5033130;28;20121;-64
2021/03/23 06:49:13;;;;;;;13.20;7.95;;;18.10;45.60;;;;;;5032932;28;20478;-67
2021/03/23 06:52:01;;;;;;;16.00;8.30;;;18.20;45.20;;;;;;5033128;28;20030;-67
2021/03/23 06:54:31;;;;;;;11.73;7.15;;;18.50;44.90;;;;;;5037365;28;20053;-68
2021/03/23 06:57:03;;;;;;;12.37;7.63;;;18.60;44.70;;;;;;5037241;28;20048;-66
2021/03/23 06:59:44;;;;;;;12.45;7.13;;;18.70;44.60;;;;;;5037305;28;20260;-69
2021/03/23 07:02:28;;;;;;;14.70;7.03;;;18.70;44.60;;;;;;5035656;28;20107;-63
2021/03/23 07:04:54;;;;;;;14.27;6.40;;;18.60;44.90;;;;;;5037271;28;20048;-64
2021/03/23 07:07:22;;;;;;;10.60;6.25;;;18.50;45.10;;;;;;5037145;28;20465;-64
2021/03/23 07:09:51;;;;;;;11.98;7.47;;;18.50;45.70;;;;;;5036786;28;20021;-63
2021/03/23 07:12:17;;;;;;;11.18;6.80;;;18.50;45.80;;;;;;5036431;28;20039;-64
2021/03/23 07:14:46;;;;;;;9.27;6.28;;;18.50;46.20;;;;;;5036981;28;20026;-63
2021/03/23 07:17:12;;;;;;;11.05;6.85;;;18.50;46.90;;;;;;5037307;28;20470;-63
2021/03/23 07:20:08;;;;;;;10.07;6.00;;;18.50;47.40;;;;;;5036548;28;20026;-64
2021/03/23 07:22:39;;;;;;;13.35;6.20;;;18.50;47.80;;;;;;5036434;28;20079;-62
2021/03/23 07:25:51;;;;;;;12.88;6.72;;;18.50;47.70;;;;;;5036873;28;20119;-64
2021/03/23 07:28:23;;;;;;;9.77;5.68;;;18.50;47.80;;;;;;5034474;28;20061;-65
2021/03/23 07:31:11;;;;;;;11.05;5.47;;;18.50;48.00;;;;;;5036401;28;20074;-64
2021/03/23 07:33:50;;;;;;;10.32;5.57;;;18.40;48.30;;;;;;5036257;28;20487;-64
2021/03/23 07:36:50;;;;;;;15.55;6.60;;;18.40;48.00;;;;;;5036613;28;20449;-64
2021/03/23 07:39:25;;;;;;;9.93;5.63;;;18.40;48.00;;;;;;5025668;28;20033;-65
2021/03/23 07:42:04;;;;;;;12.32;6.10;;;18.30;47.90;;;;;;5036095;28;20029;-67
2021/03/23 07:44:41;;;;;;;13.63;5.90;;;18.30;47.70;;;;;;5036311;28;20025;-62
2021/03/23 07:47:41;;;;;;;13.73;6.90;;;18.30;47.60;;;;;;5036268;28;20593;-64
2021/03/23 07:50:24;;;;;;;11.02;5.38;;;18.40;47.10;;;;;;5036085;28;20473;-65
2021/03/23 07:53:04;;;;;;;11.88;6.78;;;18.40;47.10;;;;;;5035244;28;20033;-65
2021/03/23 07:55:32;;;;;;;13.93;6.32;;;18.50;47.40;;;;;;5036159;28;20037;-65
2021/03/23 07:58:20;;;;;;;12.85;5.93;;;18.60;46.40;;;;;;5036189;28;20029;-65
2021/03/23 08:01:10;;;;;;;10.35;6.07;;;18.60;46.40;;;;;;5036059;28;20025;-65
2021/03/23 08:03:45;;;;;;;12.32;6.10;;;18.60;46.60;;;;;;5035371;28;20028;-65
2021/03/23 08:06:22;;;;;;;9.15;6.05;;;18.50;46.40;;;;;;5035909;28;20393;-65
2021/03/23 08:09:31;;;;;;;10.73;5.03;;;18.40;46.40;;;;;;5035611;28;20408;-65
2021/03/23 08:12:09;;;;;;;11.93;5.38;;;18.40;46.40;;;;;;5035839;28;20025;-65
2021/03/23 08:15:06;;;;;;;12.27;6.10;;;18.30;46.30;;;;;;5035639;28;20029;-65
2021/03/23 08:17:46;;;;;;;10.95;5.20;;;18.30;46.20;;;;;;5035534;28;20096;-66
2021/03/23 08:20:38;;;;;;;9.60;5.00;;;18.20;46.30;;;;;;5035816;28;20028;-65
2021/03/23 08:23:12;;;;;;;13.18;6.78;;;18.20;46.20;;;;;;5035279;28;20076;-67
2021/03/23 08:25:49;;;;;;;10.10;5.53;;;18.20;45.30;;;;;;5035436;28;20079;-64
2021/03/23 08:28:33;;;;;;;13.07;5.63;;;18.20;44.20;;;;;;5034557;28;20064;-63
2021/03/23 08:31:36;;;;;;;18.60;5.78;;;18.20;44.10;;;;;;5037856;28;20021;-66
2021/03/23 08:34:11;;;;;;;99.13;60.10;;;18.20;43.50;;;;;;5040468;28;20112;-68
2021/03/23 08:37:10;;;;;;;117.57;73.20;;;18.20;42.80;;;;;;5026119;28;20764;-68
2021/03/23 08:39:49;;;;;;;150.15;91.18;;;18.20;42.20;;;;;;5034230;28;20024;-66
2021/03/23 08:42:24;;;;;;;194.50;111.32;;;18.20;41.60;;;;;;5042168;28;20022;-67
2021/03/23 08:44:50;;;;;;;164.95;99.00;;;18.10;41.00;;;;;;5044215;28;20033;-68
2021/03/23 08:47:38;;;;;;;142.88;89.00;;;18.20;40.00;;;;;;5054923;28;20453;-63
2021/03/23 08:50:14;;;;;;;43.42;25.85;;;18.20;40.40;;;;;;5054850;28;20040;-62
2021/03/23 08:52:43;;;;;;;22.45;15.90;;;17.70;35.00;;;;;;5055192;28;20017;-61
2021/03/23 08:55:26;;;;;;;24.42;15.63;;;17.30;35.50;;;;;;5055109;28;20415;-70
2021/03/23 08:57:55;;;;;;;27.38;13.48;;;17.30;36.40;;;;;;5054803;28;20025;-64
2021/03/23 09:00:36;;;;;;;18.60;12.02;;;17.50;36.00;;;;;;5053424;28;20035;-63
2021/03/23 09:03:08;;;;;;;25.33;11.45;;;17.70;35.60;;;;;;5052748;28;20096;-64
2021/03/23 09:05:52;;;;;;;25.45;10.02;;;17.80;35.50;;;;;;5054453;28;20136;-64
2021/03/23 09:09:11;;;;;;;17.48;10.90;;;17.80;35.60;;;;;;5054263;28;20057;-65
2021/03/23 09:12:04;;;;;;;13.35;9.13;;;17.80;36.00;;;;;;4991724;28;20037;-64
2021/03/23 09:14:33;;;;;;;17.88;10.43;;;17.80;36.70;;;;;;4992477;28;20034;-64
2021/03/23 09:16:58;;;;;;;18.02;9.90;;;17.80;36.90;;;;;;5033888;28;20052;-64
2021/03/23 09:19:42;;;;;;;16.73;9.35;;;17.80;37.40;;;;;;5054363;28;20021;-64
2021/03/23 09:22:26;;;;;;;16.95;9.35;;;17.80;37.80;;;;;;5054467;28;20033;-64
2021/03/23 09:25:27;;;;;;;15.50;8.60;;;17.70;38.00;;;;;;5054331;28;20418;-64
2021/03/23 09:27:52;;;;;;;18.80;9.07;;;17.70;38.30;;;;;;5046657;28;20053;-64
2021/03/23 09:30:49;;;;;;;14.13;7.68;;;17.70;38.90;;;;;;5054232;28;20365;-64
2021/03/23 09:33:23;;;;;;;11.88;7.15;;;17.70;39.30;;;;;;5054577;28;20507;-64
2021/03/23 09:36:19;;;;;;;11.45;6.90;;;17.60;39.10;;;;;;5054298;28;20029;-64
2021/03/23 09:38:50;;;;;;;13.43;7.10;;;17.70;39.30;;;;;;5054319;28;20469;-64
2021/03/23 09:41:22;;;;;;;15.00;7.38;;;17.60;39.70;;;;;;5054257;28;20024;-64
2021/03/23 09:44:04;;;;;;;11.88;6.93;;;17.70;39.30;;;;;;5054085;28;20446;-64
2021/03/23 09:46:39;;;;;;;15.02;6.80;;;17.80;39.60;;;;;;5054681;28;20040;-64
2021/03/23 09:49:47;;;;;;;10.23;7.05;;;17.80;39.60;;;;;;5054425;28;20025;-64
2021/03/23 09:52:20;;;;;;;14.48;7.47;;;17.80;39.80;;;;;;5042792;28;20036;-64
2021/03/23 09:54:58;;;;;;;13.77;6.53;;;17.90;39.80;;;;;;5053924;28;20045;-64
2021/03/23 09:57:27;;;;;;;13.50;6.40;;;17.90;40.00;;;;;;5053977;28;20033;-63
2021/03/23 09:59:57;;;;;;;11.38;6.97;;;17.90;39.70;;;;;;5053947;28;20457;-64
2021/03/23 10:02:35;;;;;;;10.93;5.93;;;17.90;39.80;;;;;;5054167;28;20116;-64
2021/03/23 10:05:19;;;;;;;12.98;5.68;;;17.80;40.20;;;;;;5053666;28;20047;-64
2021/03/23 10:07:46;;;;;;;10.50;6.57;;;17.80;40.30;;;;;;5053894;28;20025;-64
2021/03/23 10:10:23;;;;;;;9.02;5.70;;;17.70;40.30;;;;;;5053547;28;20465;-64
2021/03/23 10:12:49;;;;;;;8.32;5.18;;;17.70;41.00;;;;;;5053984;28;20035;-64
2021/03/23 10:15:23;;;;;;;10.57;5.82;;;17.60;41.60;;;;;;5053595;28;20067;-64
2021/03/23 10:17:50;;;;;;;9.27;5.35;;;17.60;41.50;;;;;;5053872;28;20049;-64
2021/03/23 10:20:21;;;;;;;10.20;6.53;;;17.60;41.40;;;;;;5054239;28;20057;-64
2021/03/23 10:22:54;;;;;;;10.30;5.93;;;17.60;41.80;;;;;;5053561;28;20071;-64
2021/03/23 10:25:23;;;;;;;8.02;5.53;;;17.60;41.80;;;;;;5053557;28;20021;-64
2021/03/23 10:27:50;;;;;;;10.23;5.63;;;17.60;42.10;;;;;;5053076;28;20033;-63
2021/03/23 10:30:30;;;;;;;11.73;5.78;;;17.60;42.00;;;;;;5053570;28;20469;-63
2021/03/23 10:32:59;;;;;;;13.93;5.50;;;17.60;42.10;;;;;;5054029;28;20052;-63
2021/03/23 10:35:48;;;;;;;8.68;5.63;;;17.50;42.30;;;;;;5053569;28;20037;-64
2021/03/23 10:38:17;;;;;;;9.70;5.03;;;17.50;41.90;;;;;;5053452;28;20100;-64
2021/03/23 10:40:45;;;;;;;8.70;4.93;;;17.60;41.50;;;;;;5053507;28;20064;-63
2021/03/23 10:43:29;;;;;;;9.30;5.05;;;17.70;41.50;;;;;;5053407;28;20035;-64
2021/03/23 10:45:57;;;;;;;8.90;4.95;;;17.70;41.50;;;;;;5053231;28;20358;-64
2021/03/23 10:48:34;;;;;;;8.05;4.95;;;17.70;41.50;;;;;;5053447;28;20105;-63
2021/03/23 10:51:18;;;;;;;9.38;5.05;;;17.80;41.60;;;;;;5053627;28;20068;-63
2021/03/23 10:54:15;;;;;;;8.60;5.00;;;17.80;41.80;;;;;;5053143;28;20099;-64
2021/03/23 10:56:44;;;;;;;8.38;5.03;;;17.80;41.70;;;;;;5053381;28;20376;-64
2021/03/23 10:59:19;;;;;;;6.88;4.05;;;17.80;41.40;;;;;;5053232;28;20064;-64
2021/03/23 11:02:29;;;;;;;7.35;4.43;;;17.80;41.00;;;;;;5053272;28;20487;-64
2021/03/23 11:05:15;;;;;;;8.30;4.35;;;17.70;41.20;;;;;;5051155;28;20033;-64
2021/03/23 11:07:56;;;;;;;8.20;4.88;;;17.70;41.40;;;;;;5054227;28;20187;-64
2021/03/23 11:10:25;;;;;;;8.27;4.60;;;17.60;41.60;;;;;;5053218;28;20033;-64
2021/03/23 11:12:51;;;;;;;9.20;4.30;;;17.60;41.50;;;;;;5053027;28;20102;-64
2021/03/23 11:15:17;;;;;;;6.88;3.92;;;17.50;41.80;;;;;;5053111;28;20518;-64
2021/03/23 11:17:47;;;;;;;7.10;3.80;;;17.50;42.10;;;;;;5053034;28;20029;-64
2021/03/23 11:20:25;;;;;;;8.05;4.30;;;17.50;42.10;;;;;;5053127;28;20025;-64
2021/03/23 11:22:53;;;;;;;10.52;4.28;;;17.50;42.70;;;;;;5053248;28;20028;-63
2021/03/23 11:25:22;;;;;;;9.23;4.45;;;17.50;42.60;;;;;;5053101;28;20032;-62
2021/03/23 11:27:48;;;;;;;6.07;3.67;;;17.40;42.90;;;;;;5053104;28;20032;-63
2021/03/23 11:30:14;;;;;;;6.80;3.85;;;17.40;42.80;;;;;;5053007;28;20029;-63
2021/03/23 11:32:40;;;;;;;7.63;3.83;;;17.40;43.10;;;;;;5052776;28;20048;-63
2021/03/23 11:35:07;;;;;;;7.65;4.47;;;17.40;43.00;;;;;;5052843;28;20461;-63
2021/03/23 11:37:33;;;;;;;7.85;3.67;;;17.40;42.70;;;;;;5052976;28;20034;-62
2021/03/23 11:39:58;;;;;;;7.57;3.70;;;17.40;42.60;;;;;;5055955;28;20035;-62
2021/03/23 11:42:37;;;;;;;6.95;3.90;;;17.40;42.60;;;;;;5056789;28;20029;-62
2021/03/23 11:45:19;;;;;;;6.72;3.97;;;17.50;42.50;;;;;;5056454;28;20092;-62
2021/03/23 11:47:54;;;;;;;5.57;3.53;;;17.50;42.60;;;;;;5056456;28;20595;-63
2021/03/23 11:50:24;;;;;;;9.15;4.53;;;17.50;42.60;;;;;;5056398;28;20029;-63
2021/03/23 11:52:52;;;;;;;7.68;3.47;;;17.50;43.10;;;;;;5056115;28;20028;-62
2021/03/23 11:55:25;;;;;;;5.68;3.35;;;17.50;42.80;;;;;;5056304;28;20029;-63
2021/03/23 11:57:51;;;;;;;7.80;4.20;;;17.50;42.70;;;;;;5056693;28;20064;-63
2021/03/23 12:00:18;;;;;;;8.02;3.75;;;17.40;42.50;;;;;;5056648;28;20063;-63
2021/03/23 12:02:44;;;;;;;6.13;3.17;;;17.40;42.50;;;;;;5055985;28;20362;-63
2021/03/23 12:05:11;;;;;;;6.88;3.85;;;17.40;42.50;;;;;;5055852;28;20083;-63
2021/03/23 12:08:05;;;;;;;8.48;3.75;;;17.30;42.50;;;;;;5055861;28;20043;-63
2021/03/23 12:11:08;;;;;;;6.82;3.75;;;17.30;42.50;;;;;;5056165;28;20025;-63
2021/03/23 12:13:48;;;;;;;9.68;4.75;;;17.30;42.40;;;;;;5055942;28;20043;-63
2021/03/23 12:16:22;;;;;;;8.60;3.73;;;17.30;42.40;;;;;;5055873;28;20487;-63
2021/03/23 12:18:57;;;;;;;6.00;3.63;;;17.20;42.70;;;;;;5056380;28;20112;-63
2021/03/23 12:21:25;;;;;;;7.60;3.60;;;17.20;42.90;;;;;;5055786;28;20025;-63
2021/03/23 12:23:51;;;;;;;5.57;3.30;;;17.20;43.10;;;;;;5055482;28;20487;-63
2021/03/23 12:26:17;;;;;;;6.40;4.18;;;17.10;43.00;;;;;;5055507;28;20072;-63
2021/03/23 12:28:44;;;;;;;5.50;2.97;;;17.20;43.30;;;;;;5055362;28;20021;-63
2021/03/23 12:31:11;;;;;;;6.93;3.30;;;17.10;43.50;;;;;;5055358;28;20065;-63
2021/03/23 12:33:37;;;;;;;6.57;4.45;;;17.10;43.40;;;;;;5055414;28;20025;-63
2021/03/23 12:36:04;;;;;;;8.23;3.55;;;17.10;43.80;;;;;;5055518;28;20039;-63
2021/03/23 12:38:30;;;;;;;6.22;3.28;;;17.10;43.50;;;;;;5055561;28;20039;-63
2021/03/23 12:40:56;;;;;;;6.25;3.25;;;17.10;43.20;;;;;;5055292;28;20527;-63
2021/03/23 12:43:26;;;;;;;5.75;3.30;;;17.20;43.10;;;;;;5055395;28;20029;-63
2021/03/23 12:45:53;;;;;;;5.95;3.78;;;17.20;43.00;;;;;;5055498;28;20083;-63
2021/03/23 12:48:18;;;;;;;7.30;4.15;;;17.20;42.90;;;;;;5055163;28;20029;-63
2021/03/23 12:50:44;;;;;;;6.53;3.50;;;17.20;42.70;;;;;;5054995;28;20480;-62
2021/03/23 12:53:13;;;;;;;5.05;2.70;;;17.30;42.80;;;;;;5054929;28;20432;-63
2021/03/23 12:55:42;;;;;;;7.35;3.65;;;17.30;43.00;;;;;;5055088;28;20476;-63
2021/03/23 12:58:15;;;;;;;5.95;3.47;;;17.20;42.90;;;;;;5055747;28;20033;-62